This is the latest recevied weather packets stored in our database for station/object CE4ERM-13. If no packets are shown the sender has not sent any weather packets the latest 10 day(s).
| Time | Temp. | Humidity | Pressure | Rain* | Wind** | Luminosity | Snow |
|---|---|---|---|---|---|---|---|
| 1777408485 | 25° C | 30% | 1017.3 hPa | - | - | - | - |
| 1777407884 | 25° C | 30% | 1014.9 hPa | - | - | - | - |
| 1777407798 | 31.67° C | 22% | 1017 hPa | - | - | - | - |
| 1777407284 | 25° C | 30% | 1016.4 hPa | - | - | - | - |
| 1777407198 | 31.67° C | 21% | 1016.1 hPa | - | - | - | - |
| 1777406731 | 25° C | 29% | 1014.9 hPa | - | - | - | - |
| 1777406683 | 25° C | 29% | 1014.9 hPa | - | - | - | - |
| 1777406083 | 25° C | 29% | 1016.6 hPa | - | - | - | - |
| 1777405996 | 32.22° C | 19% | 1017.6 hPa | - | - | - | - |
| 1777405483 | 25° C | 29% | 1018.2 hPa | - | - | - | - |
| 1777405395 | 32.22° C | 20% | 1017.2 hPa | - | - | - | - |
| 1777404883 | 25° C | 28% | 1019.7 hPa | - | - | - | - |
| 1777404282 | 25° C | 28% | 1017.6 hPa | - | - | - | - |
| 1777403682 | 25° C | 29% | 1016.5 hPa | - | - | - | - |
| 1777403593 | 33.33° C | 19% | 1017 hPa | - | - | - | - |
| 1777403081 | 25° C | 29% | 1016.8 hPa | - | - | - | - |
| 1777402480 | 25° C | 29% | 1019.5 hPa | - | - | - | - |
| 1777401792 | 33.33° C | 18% | 1016.9 hPa | - | - | - | - |
| 1777401280 | 25° C | 29% | 1019.3 hPa | - | - | - | - |
| 1777400680 | 25° C | 28% | 1019.8 hPa | - | - | - | - |
| 1777400592 | 32.78° C | 19% | 1016.7 hPa | - | - | - | - |
| 1777400080 | 24.44° C | 30% | 1017 hPa | - | - | - | - |
| 1777399992 | 32.22° C | 19% | 1016.7 hPa | - | - | - | - |
| 1777399480 | 24.44° C | 31% | 1020.2 hPa | - | - | - | - |
| 1777398879 | 24.44° C | 32% | 1019.1 hPa | - | - | - | - |
* Rain since midnight (hover to see other rain measurements)
** Current wind speed in m/s (hover to see current wind gust speed)